Time;durP1;ratioP1;P1;durP2;ratioP2;P2;SDS_P1;SDS_P2;PMS_P1;PMS_P2;Temp;Humidity;BMP_temperature;BMP_pressure;BME280_temperature;BME280_humidity;BME280_pressure;Samples;Min_cycle;Max_cycle;Signal;HPM_P1;HPM_P2
2022/06/11 00:00:11;;;;;;;4.80;1.93;;;21.30;99.90;;;;;;5077986;28;20454;-71
2022/06/11 00:02:38;;;;;;;2.73;2.00;;;21.30;99.90;;;;;;5080044;28;20447;-71
2022/06/11 00:05:06;;;;;;;9.13;1.93;;;21.30;99.90;;;;;;5081600;28;20485;-71
2022/06/11 00:07:34;;;;;;;5.07;1.93;;;21.40;99.90;;;;;;5087190;28;20442;-71
2022/06/11 00:10:05;;;;;;;3.10;2.03;;;21.30;99.90;;;;;;5083701;28;20554;-71
2022/06/11 00:12:32;;;;;;;4.53;2.17;;;21.30;99.90;;;;;;5082241;28;20462;-71
2022/06/11 00:14:59;;;;;;;7.00;2.00;;;21.30;99.90;;;;;;5079835;28;20998;-71
2022/06/11 00:17:27;;;;;;;6.47;2.17;;;21.20;99.90;;;;;;5082335;28;20451;-71
2022/06/11 00:19:55;;;;;;;3.30;2.53;;;21.30;99.90;;;;;;5080301;28;20808;-72
2022/06/11 00:22:23;;;;;;;2.20;1.90;;;21.40;99.90;;;;;;5079286;28;20882;-72
2022/06/11 00:24:50;;;;;;;2.63;1.87;;;21.30;99.90;;;;;;5081985;28;20552;-72
2022/06/11 00:27:20;;;;;;;3.70;1.60;;;21.20;99.90;;;;;;5082140;28;20451;-71
2022/06/11 00:29:48;;;;;;;4.23;2.80;;;21.30;99.90;;;;;;5079807;28;21018;-72
2022/06/11 00:32:15;;;;;;;5.37;2.90;;;21.20;99.90;;;;;;5082267;28;20884;-72
2022/06/11 00:34:44;;;;;;;4.67;2.07;;;21.00;99.90;;;;;;5080794;28;20538;-72
2022/06/11 00:37:11;;;;;;;4.40;2.37;;;21.00;99.90;;;;;;5077192;28;20476;-72
2022/06/11 00:39:39;;;;;;;3.50;1.93;;;21.00;99.90;;;;;;5075891;28;22995;-72
2022/06/11 00:42:12;;;;;;;2.97;2.10;;;21.00;99.90;;;;;;5085342;28;20448;-72
2022/06/11 00:44:41;;;;;;;2.30;2.00;;;21.00;99.90;;;;;;5080516;28;20467;-72
2022/06/11 00:47:16;;;;;;;4.20;2.60;;;21.10;99.90;;;;;;5080733;28;20490;-71
2022/06/11 00:49:46;;;;;;;4.53;2.33;;;21.10;99.90;;;;;;5081193;28;20438;-71
2022/06/11 00:52:25;;;;;;;3.70;2.97;;;21.00;99.90;;;;;;5080735;28;20435;-71
2022/06/11 00:54:59;;;;;;;7.23;2.47;;;21.10;99.90;;;;;;5081484;28;20478;-72
2022/06/11 00:57:29;;;;;;;3.63;2.20;;;21.10;99.90;;;;;;5081191;28;20443;-72
2022/06/11 01:00:01;;;;;;;2.40;2.20;;;21.10;99.90;;;;;;5081584;28;20565;-71
2022/06/11 01:02:28;;;;;;;4.20;2.27;;;21.10;99.90;;;;;;5074764;28;20462;-72
2022/06/11 01:04:57;;;;;;;3.77;2.70;;;21.10;99.90;;;;;;5080596;28;20469;-71
2022/06/11 01:07:44;;;;;;;3.50;2.00;;;21.00;99.90;;;;;;5083610;28;20440;-72
2022/06/11 01:10:21;;;;;;;3.20;2.40;;;21.00;99.90;;;;;;5077706;28;20562;-72
2022/06/11 01:12:58;;;;;;;2.60;1.97;;;21.10;99.90;;;;;;5084320;28;20998;-72
2022/06/11 01:15:31;;;;;;;2.13;1.93;;;21.10;99.90;;;;;;5081360;28;20923;-72
2022/06/11 01:18:09;;;;;;;3.47;2.80;;;21.10;99.90;;;;;;5081212;28;20462;-72
2022/06/11 01:20:49;;;;;;;2.43;2.17;;;21.10;99.90;;;;;;5081176;28;20511;-72
2022/06/11 01:23:47;;;;;;;2.53;2.00;;;21.10;99.90;;;;;;5081460;28;20472;-72
2022/06/11 01:26:42;;;;;;;3.40;2.07;;;21.10;99.90;;;;;;5084605;28;20439;-72
2022/06/11 01:29:26;;;;;;;3.03;2.10;;;21.10;99.90;;;;;;5082012;28;20907;-72
2022/06/11 01:31:57;;;;;;;4.73;2.20;;;21.00;99.90;;;;;;5077731;28;20456;-71
2022/06/11 01:34:35;;;;;;;8.63;2.53;;;21.00;99.90;;;;;;5079433;28;20502;-71
2022/06/11 01:37:08;;;;;;;2.77;2.17;;;21.00;99.90;;;;;;5080906;28;20492;-72
2022/06/11 01:39:40;;;;;;;6.60;2.60;;;21.00;99.90;;;;;;5076246;28;20475;-71
2022/06/11 01:42:15;;;;;;;5.33;2.27;;;20.90;99.90;;;;;;5079225;28;20442;-71
2022/06/11 01:44:45;;;;;;;2.93;2.20;;;21.00;99.90;;;;;;5072509;28;20466;-71
2022/06/11 01:47:13;;;;;;;2.43;2.10;;;21.00;99.90;;;;;;5078053;28;20462;-71
2022/06/11 01:49:44;;;;;;;4.73;2.87;;;20.90;99.90;;;;;;5075286;28;20451;-71
2022/06/11 01:52:28;;;;;;;9.63;2.03;;;20.90;99.90;;;;;;5074868;28;20526;-71
2022/06/11 01:55:01;;;;;;;2.20;2.00;;;20.80;99.90;;;;;;5075709;28;20538;-71
2022/06/11 01:57:46;;;;;;;3.67;2.50;;;20.70;99.90;;;;;;5081444;28;20936;-71
2022/06/11 02:00:19;;;;;;;2.67;2.47;;;20.60;99.90;;;;;;5082126;28;20489;-71
2022/06/11 02:03:11;;;;;;;2.10;1.90;;;20.60;99.90;;;;;;5084239;28;20460;-71
2022/06/11 02:05:50;;;;;;;4.43;1.90;;;20.50;99.90;;;;;;5081690;28;20900;-71
2022/06/11 02:08:25;;;;;;;7.23;2.13;;;20.60;99.90;;;;;;5082266;28;20438;-71
2022/06/11 02:10:57;;;;;;;2.50;2.00;;;20.60;99.90;;;;;;5074803;28;20759;-71
2022/06/11 02:13:32;;;;;;;6.70;2.43;;;20.70;99.90;;;;;;5077521;28;21111;-71
2022/06/11 02:16:06;;;;;;;7.63;2.70;;;20.60;99.90;;;;;;5080866;28;20443;-71
2022/06/11 02:18:34;;;;;;;6.20;2.10;;;20.50;99.90;;;;;;5078576;28;20533;-71
2022/06/11 02:21:06;;;;;;;4.50;2.77;;;20.50;99.90;;;;;;5077959;28;20970;-71
2022/06/11 02:23:37;;;;;;;3.70;2.27;;;20.40;99.90;;;;;;5077370;28;20569;-71
2022/06/11 02:26:10;;;;;;;3.30;2.07;;;20.30;99.90;;;;;;5079632;28;20514;-71
2022/06/11 02:28:41;;;;;;;13.60;2.83;;;20.30;99.90;;;;;;5074939;28;20834;-71
2022/06/11 02:31:13;;;;;;;8.73;2.20;;;20.20;99.90;;;;;;5075900;28;20735;-71
2022/06/11 02:33:42;;;;;;;3.60;2.47;;;20.10;99.90;;;;;;5084303;28;20458;-71
2022/06/11 02:36:17;;;;;;;4.10;2.60;;;20.10;99.90;;;;;;5077752;28;20464;-71
2022/06/11 02:38:44;;;;;;;2.80;2.27;;;20.00;99.90;;;;;;5081657;28;20460;-71
2022/06/11 02:41:16;;;;;;;2.57;2.30;;;19.90;99.90;;;;;;5085537;28;20465;-71
2022/06/11 02:43:43;;;;;;;4.00;2.27;;;19.80;99.90;;;;;;5083274;28;20464;-71
2022/06/11 02:48:56;;;;;;;8.40;2.50;;;19.80;99.90;;;;;;5080531;28;20423;-71
2022/06/11 02:51:26;;;;;;;3.03;2.23;;;19.70;99.90;;;;;;5084748;28;20447;-71
2022/06/11 02:53:52;;;;;;;3.27;2.10;;;19.80;99.90;;;;;;5085320;28;20569;-71
2022/06/11 02:56:20;;;;;;;4.87;2.87;;;19.70;99.90;;;;;;5079801;28;20446;-71
2022/06/11 02:58:47;;;;;;;3.70;2.37;;;19.70;99.90;;;;;;5081717;28;20529;-70
2022/06/11 03:01:16;;;;;;;3.67;2.47;;;19.60;99.90;;;;;;5078510;28;20981;-71
2022/06/11 03:03:43;;;;;;;2.57;2.00;;;19.60;99.90;;;;;;5082757;28;20671;-71
2022/06/11 03:06:11;;;;;;;5.50;3.73;;;19.50;99.90;;;;;;5084411;28;20947;-71
2022/06/11 03:08:38;;;;;;;4.53;2.67;;;19.40;99.90;;;;;;5080523;28;20865;-71
2022/06/11 03:11:05;;;;;;;2.37;2.17;;;19.30;99.90;;;;;;5077623;28;20964;-71
2022/06/11 03:13:32;;;;;;;6.10;3.27;;;19.30;99.90;;;;;;5083980;28;20459;-71
2022/06/11 03:15:59;;;;;;;3.30;2.53;;;19.30;99.90;;;;;;5087165;28;20450;-71
2022/06/11 03:18:27;;;;;;;3.87;2.97;;;19.20;99.90;;;;;;5084725;28;20482;-71
2022/06/11 03:20:55;;;;;;;4.10;2.37;;;19.00;99.90;;;;;;5081096;28;20511;-71
2022/06/11 03:23:22;;;;;;;5.20;3.07;;;18.90;99.90;;;;;;5083212;28;20472;-71
2022/06/11 03:25:49;;;;;;;3.17;2.60;;;18.90;99.90;;;;;;5082867;28;20441;-71
2022/06/11 03:28:19;;;;;;;5.33;2.77;;;18.90;99.90;;;;;;5081140;28;20546;-71
2022/06/11 03:30:47;;;;;;;4.30;2.80;;;18.90;99.90;;;;;;5078610;28;20530;-72
2022/06/11 03:33:14;;;;;;;4.80;2.30;;;18.80;99.90;;;;;;5077529;28;20458;-71
2022/06/11 03:35:44;;;;;;;7.93;2.60;;;18.60;99.90;;;;;;5077735;28;20919;-71
2022/06/11 03:38:12;;;;;;;2.97;2.57;;;18.60;99.90;;;;;;5079784;28;20550;-71
2022/06/11 03:40:40;;;;;;;3.80;2.87;;;18.40;99.90;;;;;;5083439;28;21026;-71
2022/06/11 03:43:07;;;;;;;3.07;2.50;;;18.30;99.90;;;;;;5077102;28;20920;-71
2022/06/11 03:45:34;;;;;;;5.50;2.73;;;18.30;99.90;;;;;;5085198;28;20458;-71
2022/06/11 03:48:01;;;;;;;6.40;3.40;;;18.20;99.90;;;;;;5085260;28;20445;-71
2022/06/11 03:50:32;;;;;;;8.10;3.10;;;18.20;99.90;;;;;;5082735;28;20445;-71
2022/06/11 03:53:00;;;;;;;9.30;2.70;;;18.20;99.90;;;;;;5082867;28;20443;-71
2022/06/11 03:55:29;;;;;;;3.00;2.50;;;18.10;99.90;;;;;;5081383;28;20457;-71
2022/06/11 03:57:56;;;;;;;3.70;2.60;;;18.00;99.90;;;;;;5075900;28;20879;-71
2022/06/11 04:03:06;;;;;;;2.23;2.03;;;18.00;99.90;;;;;;5080543;28;20424;-71
2022/06/11 04:05:33;;;;;;;2.70;2.50;;;18.00;99.90;;;;;;5075200;28;20462;-71
2022/06/11 04:08:02;;;;;;;32.83;4.20;;;18.00;99.90;;;;;;5077726;28;20456;-71
2022/06/11 04:10:29;;;;;;;5.63;3.60;;;18.10;99.90;;;;;;5082243;28;20545;-71
2022/06/11 04:12:56;;;;;;;3.97;2.80;;;18.20;99.90;;;;;;5082813;28;20485;-71
2022/06/11 04:15:23;;;;;;;8.40;3.27;;;18.30;99.90;;;;;;5077113;28;20525;-70
2022/06/11 04:17:50;;;;;;;4.23;2.80;;;18.30;99.90;;;;;;5083138;28;20449;-71
2022/06/11 04:20:17;;;;;;;4.17;3.20;;;18.30;99.90;;;;;;5077405;28;20480;-71
2022/06/11 04:22:45;;;;;;;7.33;3.67;;;18.30;99.90;;;;;;5080958;28;20536;-71
2022/06/11 04:25:15;;;;;;;4.33;2.17;;;18.30;99.90;;;;;;5092745;22;20590;-69
2022/06/11 04:27:43;;;;;;;10.20;3.67;;;18.30;99.90;;;;;;5061001;28;20916;-70
2022/06/11 04:30:13;;;;;;;4.57;2.50;;;18.40;99.90;;;;;;5061569;28;20489;-70
2022/06/11 04:32:40;;;;;;;9.40;3.83;;;18.60;99.90;;;;;;5065123;28;20447;-70
2022/06/11 04:35:08;;;;;;;4.73;3.10;;;18.70;99.90;;;;;;5064731;28;20861;-72
2022/06/11 04:37:35;;;;;;;6.40;3.33;;;18.90;99.90;;;;;;5063952;28;20457;-71
2022/06/11 04:40:04;;;;;;;3.27;2.63;;;18.90;99.90;;;;;;5058819;28;20578;-71
2022/06/11 04:42:32;;;;;;;3.93;2.90;;;19.00;99.90;;;;;;5059012;28;20460;-71
2022/06/11 04:44:59;;;;;;;3.33;2.23;;;19.00;99.90;;;;;;5064739;28;20546;-72
2022/06/11 04:47:29;;;;;;;4.20;2.50;;;19.10;99.90;;;;;;5061319;28;20458;-72
2022/06/11 04:49:58;;;;;;;5.33;2.50;;;19.20;99.90;;;;;;5058321;28;20450;-72
2022/06/11 04:52:26;;;;;;;9.43;2.83;;;19.20;99.90;;;;;;5057764;28;20463;-72
2022/06/11 04:54:53;;;;;;;4.63;3.27;;;19.30;99.90;;;;;;5064494;28;21199;-72
2022/06/11 04:57:21;;;;;;;4.60;3.20;;;19.40;99.90;;;;;;5067425;28;20421;-71
2022/06/11 04:59:50;;;;;;;14.30;3.10;;;19.60;99.90;;;;;;5058751;28;20576;-72
2022/06/11 05:02:17;;;;;;;5.57;2.63;;;19.50;99.90;;;;;;5061359;28;20449;-71
2022/06/11 05:04:44;;;;;;;6.20;2.53;;;19.60;99.90;;;;;;5062921;28;20473;-69
2022/06/11 05:07:11;;;;;;;3.13;2.80;;;19.60;99.90;;;;;;5063557;28;20463;-72
2022/06/11 05:09:39;;;;;;;4.33;2.87;;;19.70;99.90;;;;;;5063803;28;20446;-70
2022/06/11 05:12:07;;;;;;;4.13;2.53;;;19.80;99.90;;;;;;5067724;28;20453;-69
2022/06/11 05:14:35;;;;;;;3.60;2.10;;;19.90;99.90;;;;;;5063225;28;20467;-70
2022/06/11 05:17:03;;;;;;;4.60;2.47;;;20.00;99.90;;;;;;5065865;28;20458;-70
2022/06/11 05:19:30;;;;;;;2.70;2.37;;;20.40;99.90;;;;;;5062865;28;20435;-69
2022/06/11 05:21:57;;;;;;;2.50;2.20;;;20.70;99.90;;;;;;5065192;28;20455;-70
2022/06/11 05:24:25;;;;;;;3.67;2.40;;;21.00;99.90;;;;;;5063249;28;20491;-70
2022/06/11 05:26:55;;;;;;;3.53;1.97;;;21.30;99.90;;;;;;5082804;28;20533;-70
2022/06/11 05:29:27;;;;;;;4.53;3.40;;;21.80;99.90;;;;;;5081885;28;20450;-70
2022/06/11 05:31:54;;;;;;;5.80;2.33;;;22.10;99.90;;;;;;5081578;28;20517;-70
2022/06/11 05:34:23;;;;;;;3.97;2.27;;;22.10;99.90;;;;;;5082766;28;20478;-70
2022/06/11 05:36:49;;;;;;;4.00;2.63;;;22.40;99.90;;;;;;5082069;28;20947;-69
2022/06/11 05:39:17;;;;;;;9.53;2.80;;;22.40;99.90;;;;;;5082077;28;20450;-69
2022/06/11 05:41:44;;;;;;;3.60;2.90;;;22.30;99.90;;;;;;5084320;28;20941;-70
2022/06/11 05:44:11;;;;;;;6.10;2.20;;;22.60;99.90;;;;;;5084805;28;20523;-70
2022/06/11 05:46:38;;;;;;;3.40;2.47;;;22.70;99.90;;;;;;5082799;28;20438;-69
2022/06/11 05:49:08;;;;;;;5.80;3.83;;;22.60;99.90;;;;;;5073641;28;21001;-71
2022/06/11 05:51:39;;;;;;;6.20;2.00;;;22.70;99.90;;;;;;5076435;28;20450;-72
2022/06/11 05:54:10;;;;;;;3.07;2.20;;;22.90;99.90;;;;;;5083941;28;20463;-72
2022/06/11 05:56:38;;;;;;;7.93;2.13;;;23.30;99.90;;;;;;5089534;28;20493;-71
2022/06/11 05:59:10;;;;;;;5.03;2.57;;;23.40;99.90;;;;;;5093186;28;20980;-70
2022/06/11 06:01:39;;;;;;;11.33;2.50;;;23.80;99.90;;;;;;5095532;28;20574;-71
2022/06/11 06:04:06;;;;;;;4.57;2.37;;;24.00;99.90;;;;;;5096238;28;20583;-71
2022/06/11 06:06:33;;;;;;;3.10;2.00;;;23.50;99.90;;;;;;5096202;28;21055;-70
2022/06/11 06:09:02;;;;;;;6.30;2.10;;;23.10;99.90;;;;;;5085232;28;20443;-70
2022/06/11 06:11:29;;;;;;;4.20;2.83;;;22.70;99.90;;;;;;5088645;28;20434;-70
2022/06/11 06:13:56;;;;;;;3.13;1.90;;;22.10;99.90;;;;;;5082476;28;20784;-70
2022/06/11 06:16:25;;;;;;;5.00;2.83;;;21.60;99.90;;;;;;5086748;28;20468;-70
2022/06/11 06:18:55;;;;;;;4.40;2.00;;;21.20;99.90;;;;;;5089834;28;21094;-70
2022/06/11 06:21:25;;;;;;;2.10;1.90;;;21.00;99.90;;;;;;5083334;28;20477;-70
2022/06/11 06:23:52;;;;;;;5.07;2.20;;;20.90;99.90;;;;;;5085253;28;20467;-71
2022/06/11 06:26:23;;;;;;;2.23;2.03;;;20.70;99.90;;;;;;5086218;28;20545;-70
2022/06/11 06:28:50;;;;;;;4.67;2.57;;;20.60;99.90;;;;;;5087918;28;20543;-70
2022/06/11 06:31:18;;;;;;;2.60;1.80;;;20.70;99.90;;;;;;5080923;28;20829;-70
2022/06/11 06:33:45;;;;;;;1.80;1.40;;;20.80;99.90;;;;;;5081667;28;20499;-71
2022/06/11 06:36:14;;;;;;;2.17;1.77;;;20.90;99.90;;;;;;5086460;28;20986;-71
2022/06/11 06:38:42;;;;;;;2.53;1.83;;;21.00;99.90;;;;;;5085530;28;20464;-70
2022/06/11 06:41:09;;;;;;;5.60;2.47;;;20.80;99.90;;;;;;5084163;28;20571;-70
2022/06/11 06:43:37;;;;;;;2.47;1.67;;;20.70;99.90;;;;;;5091534;28;20512;-70
2022/06/11 06:46:05;;;;;;;2.20;2.00;;;20.80;99.90;;;;;;5085996;28;20971;-70
2022/06/11 06:48:32;;;;;;;3.90;3.50;;;20.70;99.90;;;;;;5088118;28;20434;-70
2022/06/11 06:51:01;;;;;;;6.03;2.67;;;20.80;99.90;;;;;;5084718;28;21112;-70
2022/06/11 06:53:28;;;;;;;2.13;1.70;;;21.10;99.90;;;;;;5086551;28;20448;-71
2022/06/11 06:55:55;;;;;;;2.30;1.60;;;21.30;99.90;;;;;;5087044;28;20466;-70
2022/06/11 06:58:23;;;;;;;3.73;1.90;;;21.30;99.90;;;;;;5079637;28;20462;-71
2022/06/11 07:00:52;;;;;;;5.33;1.97;;;21.30;99.90;;;;;;5081333;28;20473;-71
2022/06/11 07:03:19;;;;;;;8.60;1.90;;;21.50;99.90;;;;;;5081766;28;20450;-71
2022/06/11 07:05:46;;;;;;;2.50;1.93;;;21.50;99.90;;;;;;5083405;28;20480;-70
2022/06/11 07:08:14;;;;;;;1.60;1.50;;;21.50;99.90;;;;;;5085075;28;20458;-71
2022/06/11 07:10:41;;;;;;;7.53;3.87;;;21.20;99.90;;;;;;5085305;28;20442;-71
2022/06/11 07:13:08;;;;;;;1.87;1.53;;;21.20;99.90;;;;;;5086684;28;20453;-70
2022/06/11 07:15:36;;;;;;;4.50;1.43;;;21.40;99.90;;;;;;5085462;28;20990;-71
2022/06/11 07:18:09;;;;;;;1.80;1.30;;;21.60;99.90;;;;;;5083369;28;20465;-71
2022/06/11 07:20:38;;;;;;;1.77;1.60;;;21.80;99.90;;;;;;5084116;28;20478;-71
2022/06/11 07:23:10;;;;;;;2.00;1.80;;;21.90;99.90;;;;;;5086616;28;20446;-71
2022/06/11 07:25:39;;;;;;;5.10;1.80;;;21.90;99.90;;;;;;5083096;28;21253;-71
2022/06/11 07:28:14;;;;;;;2.83;1.60;;;22.10;99.90;;;;;;5084125;28;20469;-71
2022/06/11 07:30:44;;;;;;;3.43;1.80;;;22.50;99.90;;;;;;5080282;28;20673;-71
2022/06/11 07:33:16;;;;;;;2.80;1.80;;;22.50;99.90;;;;;;5083387;28;20450;-70
2022/06/11 07:35:43;;;;;;;1.90;1.60;;;22.30;99.90;;;;;;5085842;28;21013;-71
2022/06/11 07:38:13;;;;;;;4.67;1.87;;;22.30;99.90;;;;;;5089265;28;20726;-70
2022/06/11 07:40:41;;;;;;;4.80;1.77;;;22.50;99.90;;;;;;5080252;28;20494;-71
2022/06/11 07:43:08;;;;;;;2.47;2.03;;;22.90;99.90;;;;;;5086535;28;20807;-70
2022/06/11 07:45:36;;;;;;;8.73;3.33;;;23.20;99.90;;;;;;5084932;28;21017;-71
2022/06/11 07:48:03;;;;;;;4.13;1.97;;;23.30;99.90;;;;;;5083427;28;20467;-71
2022/06/11 07:50:33;;;;;;;4.83;2.20;;;23.50;99.90;;;;;;5083875;28;20454;-71
2022/06/11 07:53:02;;;;;;;5.23;1.60;;;23.50;99.90;;;;;;5085721;28;20434;-71
2022/06/11 07:55:30;;;;;;;6.90;2.03;;;23.40;99.90;;;;;;5088063;28;20491;-70
2022/06/11 07:57:57;;;;;;;2.10;1.70;;;23.30;99.90;;;;;;5082130;28;20545;-70
2022/06/11 08:00:27;;;;;;;3.50;1.60;;;23.50;99.90;;;;;;5081685;28;20821;-71
2022/06/11 08:02:54;;;;;;;3.20;2.13;;;24.00;99.90;;;;;;5083842;28;20438;-71
2022/06/11 08:05:22;;;;;;;4.33;1.73;;;24.00;99.90;;;;;;5082961;28;20454;-71
2022/06/11 08:07:52;;;;;;;3.37;2.40;;;24.10;99.90;;;;;;5081180;28;20874;-71
2022/06/11 08:10:20;;;;;;;1.87;1.70;;;25.40;99.90;;;;;;5086611;28;20810;-71
2022/06/11 08:12:47;;;;;;;3.27;1.90;;;26.00;99.90;;;;;;5084910;28;20448;-71
2022/06/11 08:15:14;;;;;;;5.20;2.50;;;26.40;99.90;;;;;;5087503;28;20490;-71
2022/06/11 08:17:41;;;;;;;3.33;1.93;;;26.50;99.90;;;;;;5083094;28;20545;-70
2022/06/11 08:20:12;;;;;;;4.27;2.23;;;25.90;99.90;;;;;;5081575;28;20478;-70
2022/06/11 08:22:39;;;;;;;5.87;2.10;;;25.50;99.90;;;;;;5087139;28;21041;-70
2022/06/11 08:25:08;;;;;;;3.23;2.70;;;25.40;99.90;;;;;;5083556;28;20474;-70
2022/06/11 08:27:35;;;;;;;8.00;2.80;;;25.70;99.90;;;;;;5079000;28;20458;-71
2022/06/11 08:30:02;;;;;;;7.50;2.53;;;25.40;99.90;;;;;;5082125;28;20846;-70
2022/06/11 08:32:29;;;;;;;2.13;1.90;;;25.70;99.90;;;;;;5081343;28;20530;-70
2022/06/11 08:34:55;;;;;;;2.53;1.90;;;25.80;99.90;;;;;;5083585;28;20462;-70
2022/06/11 08:37:23;;;;;;;2.73;2.07;;;26.30;99.90;;;;;;5085531;28;20474;-70
2022/06/11 08:39:50;;;;;;;4.40;2.80;;;26.00;99.90;;;;;;5078924;28;20454;-71
2022/06/11 08:42:36;;;;;;;4.07;3.13;;;25.30;99.90;;;;;;5084324;28;21013;-70
2022/06/11 08:45:14;;;;;;;3.43;3.13;;;25.00;99.90;;;;;;5087917;28;20462;-71
2022/06/11 08:47:46;;;;;;;6.13;2.60;;;24.50;99.90;;;;;;5083065;28;20457;-70
2022/06/11 08:50:18;;;;;;;4.27;3.03;;;24.10;99.90;;;;;;5083681;28;20456;-70
2022/06/11 08:52:46;;;;;;;3.73;2.63;;;24.00;99.90;;;;;;5084278;28;20822;-70
2022/06/11 08:55:14;;;;;;;5.17;2.87;;;24.40;99.90;;;;;;5075730;28;20574;-71
2022/06/11 08:57:55;;;;;;;4.73;2.90;;;24.50;99.90;;;;;;5079796;28;20462;-71
2022/06/11 09:00:28;;;;;;;3.40;3.10;;;24.30;99.90;;;;;;5076881;28;20903;-70
2022/06/11 09:03:10;;;;;;;6.17;5.20;;;24.10;99.90;;;;;;5075186;28;20996;-72
2022/06/11 09:06:01;;;;;;;3.40;2.80;;;24.50;99.90;;;;;;5076821;28;20481;-71
2022/06/11 09:08:56;;;;;;;4.53;2.57;;;24.80;99.90;;;;;;5082890;28;20441;-71
2022/06/11 09:11:44;;;;;;;4.30;3.10;;;24.50;99.90;;;;;;5080168;28;20558;-71
2022/06/11 09:14:44;;;;;;;3.27;2.97;;;24.50;99.90;;;;;;5081477;28;20469;-71
2022/06/11 09:17:43;;;;;;;5.07;3.77;;;24.50;99.90;;;;;;5082886;28;20538;-71
2022/06/11 09:20:22;;;;;;;9.60;4.20;;;24.60;99.90;;;;;;5068043;28;20464;-71
2022/06/11 09:23:25;;;;;;;11.57;4.00;;;24.50;99.90;;;;;;5082331;28;21191;-71
2022/06/11 09:26:04;;;;;;;4.17;3.60;;;24.30;99.90;;;;;;5064383;28;20496;-71
2022/06/11 09:28:41;;;;;;;4.90;2.33;;;24.10;99.90;;;;;;5083956;28;20434;-71
2022/06/11 09:31:15;;;;;;;4.20;2.20;;;23.90;99.90;;;;;;5081670;28;20525;-71
2022/06/11 09:33:50;;;;;;;4.37;2.33;;;24.70;99.90;;;;;;5087553;28;20529;-71
2022/06/11 09:36:22;;;;;;;6.83;2.73;;;25.10;99.90;;;;;;5085002;28;20515;-71
2022/06/11 09:38:58;;;;;;;2.80;2.27;;;25.20;99.90;;;;;;5085217;28;20443;-70
2022/06/11 09:41:35;;;;;;;9.13;3.03;;;25.70;99.90;;;;;;5080445;28;21006;-71
2022/06/11 09:44:16;;;;;;;5.70;3.33;;;24.80;99.90;;;;;;5084219;28;20466;-71
2022/06/11 09:46:49;;;;;;;5.90;2.90;;;24.90;99.90;;;;;;5082394;28;21403;-71
2022/06/11 09:49:29;;;;;;;3.80;2.93;;;25.10;99.90;;;;;;5086298;28;20533;-70
2022/06/11 09:52:04;;;;;;;3.87;2.80;;;25.40;99.90;;;;;;5084629;28;20917;-70
2022/06/11 09:54:43;;;;;;;3.97;3.07;;;25.90;99.90;;;;;;5081662;28;20471;-71
2022/06/11 09:57:20;;;;;;;7.80;3.00;;;25.70;99.90;;;;;;5085407;28;20449;-71
2022/06/11 09:59:50;;;;;;;3.20;2.90;;;25.40;99.90;;;;;;5081901;28;20528;-71
2022/06/11 10:02:28;;;;;;;6.93;3.10;;;25.60;99.90;;;;;;5078270;28;20477;-72
2022/06/11 10:04:58;;;;;;;5.27;3.17;;;25.80;99.90;;;;;;5084679;28;20466;-72
2022/06/11 10:07:29;;;;;;;3.17;2.77;;;25.90;99.90;;;;;;5083140;28;20449;-69
2022/06/11 10:10:02;;;;;;;3.97;3.57;;;25.60;99.90;;;;;;5086915;28;20557;-70
2022/06/11 10:12:32;;;;;;;8.00;2.87;;;25.60;99.90;;;;;;5082333;28;20533;-70
2022/06/11 10:15:06;;;;;;;5.27;2.63;;;26.70;99.90;;;;;;5075656;28;20527;-70
2022/06/11 10:17:40;;;;;;;5.20;2.47;;;28.10;99.90;;;;;;5082172;28;20521;-70
2022/06/11 10:20:13;;;;;;;4.97;2.57;;;29.50;99.90;;;;;;5078538;28;20458;-70
2022/06/11 10:22:45;;;;;;;4.37;2.50;;;29.00;99.90;;;;;;5080144;28;20479;-70
2022/06/11 10:25:23;;;;;;;3.00;2.37;;;28.90;99.90;;;;;;5096407;22;20466;-70
2022/06/11 10:27:56;;;;;;;5.93;2.87;;;28.50;99.90;;;;;;5073685;28;20497;-71
2022/06/11 10:30:31;;;;;;;4.70;2.53;;;28.40;99.90;;;;;;5077191;28;20446;-70
2022/06/11 10:33:03;;;;;;;9.13;2.93;;;29.20;99.90;;;;;;5076111;28;20429;-70
2022/06/11 10:35:32;;;;;;;3.23;2.93;;;29.30;99.90;;;;;;5075231;28;20483;-70
2022/06/11 10:38:12;;;;;;;5.00;3.17;;;30.00;99.90;;;;;;5061166;28;20446;-71
2022/06/11 10:40:45;;;;;;;7.37;3.60;;;30.80;99.90;;;;;;5061362;28;20444;-71
2022/06/11 10:43:18;;;;;;;2.90;2.60;;;31.10;99.90;;;;;;5060128;28;20483;-71
2022/06/11 10:45:47;;;;;;;3.57;3.27;;;31.50;99.40;;;;;;5060195;28;20486;-71
2022/06/11 10:48:18;;;;;;;3.53;3.00;;;31.70;98.90;;;;;;5059164;28;20448;-70
2022/06/11 10:50:45;;;;;;;4.33;3.13;;;31.00;98.40;;;;;;5061261;28;21424;-71
2022/06/11 10:53:20;;;;;;;5.50;3.60;;;30.20;99.90;;;;;;5061796;28;20460;-71
2022/06/11 10:55:50;;;;;;;4.80;4.17;;;29.00;99.90;;;;;;5057599;28;20454;-71
2022/06/11 10:58:26;;;;;;;5.10;4.70;;;28.60;99.90;;;;;;5065057;28;20521;-71
2022/06/11 11:00:56;;;;;;;5.10;4.57;;;29.30;99.90;;;;;;5060909;28;20517;-69
2022/06/11 11:03:31;;;;;;;5.80;4.70;;;30.00;99.90;;;;;;5064240;28;20487;-70
2022/06/11 11:06:03;;;;;;;5.80;3.80;;;29.80;99.90;;;;;;5067359;28;20461;-70
2022/06/11 11:08:30;;;;;;;5.03;3.70;;;30.50;99.90;;;;;;5067408;28;20530;-70
2022/06/11 11:10:59;;;;;;;8.33;4.73;;;30.90;99.90;;;;;;5064837;28;20531;-70
2022/06/11 11:13:32;;;;;;;4.97;4.10;;;31.00;98.90;;;;;;5067242;28;20435;-70
2022/06/11 11:16:08;;;;;;;4.20;3.80;;;31.30;98.20;;;;;;5064398;28;20463;-70
2022/06/11 11:18:43;;;;;;;4.07;3.17;;;30.50;99.10;;;;;;5064626;28;20468;-70
2022/06/11 11:21:18;;;;;;;3.80;3.50;;;31.00;97.20;;;;;;5064877;28;20448;-70
2022/06/11 11:23:49;;;;;;;4.47;4.03;;;31.30;97.20;;;;;;5064132;28;20431;-69
2022/06/11 11:26:23;;;;;;;6.60;3.30;;;31.70;96.60;;;;;;5066884;28;20470;-70
2022/06/11 11:28:57;;;;;;;4.50;3.70;;;32.00;95.90;;;;;;5057218;28;20447;-69
2022/06/11 11:31:26;;;;;;;3.93;3.30;;;31.30;95.40;;;;;;5060159;28;20450;-70
2022/06/11 11:34:04;;;;;;;6.27;3.63;;;30.50;97.40;;;;;;5062992;28;20442;-70
2022/06/11 11:36:34;;;;;;;3.10;2.80;;;29.70;98.40;;;;;;5060681;28;20478;-70
2022/06/11 11:39:17;;;;;;;4.70;2.63;;;29.20;99.20;;;;;;5062896;28;20897;-70
2022/06/11 11:41:52;;;;;;;4.07;2.70;;;28.60;99.90;;;;;;5062973;28;20573;-71
2022/06/11 11:44:19;;;;;;;6.80;3.30;;;28.30;99.90;;;;;;5062070;28;20834;-71
2022/06/11 11:46:51;;;;;;;4.97;3.00;;;28.40;99.90;;;;;;5065975;28;20551;-70
2022/06/11 11:49:23;;;;;;;3.40;3.10;;;29.10;99.90;;;;;;5063928;28;21013;-70
2022/06/11 11:51:51;;;;;;;2.97;2.67;;;30.30;99.90;;;;;;5066163;28;20461;-70
2022/06/11 11:54:21;;;;;;;3.00;2.80;;;30.60;99.10;;;;;;5064439;28;20439;-70
2022/06/11 11:56:52;;;;;;;4.37;2.70;;;31.00;99.20;;;;;;5062910;28;20617;-70
2022/06/11 11:59:23;;;;;;;3.17;2.83;;;30.70;97.40;;;;;;5063008;28;20476;-71
2022/06/11 12:01:54;;;;;;;7.40;3.63;;;29.60;98.90;;;;;;5057619;28;20491;-70
2022/06/11 12:04:27;;;;;;;3.10;2.80;;;27.80;99.90;;;;;;5065351;28;20471;-70
2022/06/11 12:06:57;;;;;;;4.80;3.10;;;28.00;99.90;;;;;;5061577;28;20463;-70
2022/06/11 12:09:28;;;;;;;7.30;3.20;;;28.30;99.90;;;;;;5064122;28;20441;-70
2022/06/11 12:12:05;;;;;;;3.13;2.47;;;27.90;99.90;;;;;;5064123;28;20459;-70
2022/06/11 12:14:38;;;;;;;5.37;2.90;;;28.60;99.90;;;;;;5063736;28;20454;-70
2022/06/11 12:17:18;;;;;;;4.10;3.07;;;29.00;99.90;;;;;;5064695;28;20676;-70
2022/06/11 12:19:53;;;;;;;4.60;2.90;;;29.40;99.90;;;;;;5063595;28;20789;-71
2022/06/11 12:22:25;;;;;;;5.00;3.23;;;30.10;99.90;;;;;;5053945;28;20578;-70
2022/06/11 12:24:54;;;;;;;2.80;2.37;;;29.80;99.90;;;;;;5065743;28;20435;-70
2022/06/11 12:27:28;;;;;;;3.27;3.00;;;30.90;98.40;;;;;;5060698;28;20490;-70
2022/06/11 12:30:01;;;;;;;2.20;2.00;;;31.60;96.30;;;;;;5057302;28;20545;-70
2022/06/11 12:32:30;;;;;;;3.10;2.60;;;31.90;95.70;;;;;;5062523;28;20518;-69
2022/06/11 12:35:00;;;;;;;3.10;2.80;;;31.70;95.00;;;;;;5063811;28;20479;-70
2022/06/11 12:37:37;;;;;;;4.10;2.43;;;30.50;97.80;;;;;;5061472;28;20471;-70
2022/06/11 12:40:14;;;;;;;5.77;2.50;;;29.70;97.90;;;;;;5061525;28;20454;-70
2022/06/11 12:42:47;;;;;;;3.47;2.60;;;28.60;99.60;;;;;;5065355;28;20488;-70
2022/06/11 12:45:23;;;;;;;3.80;2.63;;;28.10;99.90;;;;;;5062035;28;20551;-70
2022/06/11 12:48:00;;;;;;;3.20;2.67;;;28.40;99.90;;;;;;5062115;28;20846;-71
2022/06/11 12:50:41;;;;;;;3.30;2.20;;;28.10;99.90;;;;;;5061408;28;20838;-70
2022/06/11 12:53:19;;;;;;;4.00;2.70;;;28.20;99.90;;;;;;5063275;28;20838;-71
2022/06/11 12:56:08;;;;;;;2.87;1.80;;;28.90;99.40;;;;;;5065393;28;20458;-70
2022/06/11 12:59:06;;;;;;;2.37;2.03;;;29.90;99.20;;;;;;5063116;28;20864;-71
2022/06/11 13:01:42;;;;;;;3.83;1.70;;;29.80;96.90;;;;;;5060191;28;20450;-71
2022/06/11 13:04:32;;;;;;;2.40;2.10;;;29.30;97.90;;;;;;5059068;28;20478;-71
2022/06/11 13:07:10;;;;;;;3.17;2.37;;;29.90;97.90;;;;;;5063390;28;20459;-71
2022/06/11 13:10:00;;;;;;;3.53;2.10;;;30.20;96.80;;;;;;5059918;28;20458;-70
2022/06/11 13:12:39;;;;;;;3.57;2.13;;;29.10;97.30;;;;;;5062836;28;20444;-71